San Diego, California
Traffic Map
Current Weather Conditions
San Diego, California
Few Clouds
Few Clouds

Feels Like: 7°
Wind Chill: Ceiling: Unl
Heat Index: Visibility: 10mi
Dew Point: -1° Wind: 5mph
Humidity: 56% Direction: 100° (E)
Pressure: 30.12in Gusts: 0mph
Raw Report DataKSAN 201351Z 10004KT 10SM FEW250 08/M01 A3012 RMK AO2 SLP199 T00781006
Traffic Incident Summary
Active as of:
Severity:
Category:
InformationThere was an issue retrieving the traffic information for this location. Please try a different location or try again shortly.
Advertisements